Time;durP1;ratioP1;P1;durP2;ratioP2;P2;SDS_P1;SDS_P2;PMS_P1;PMS_P2;Temp;Humidity;BMP_temperature;BMP_pressure;BME280_temperature;BME280_humidity;BME280_pressure;Samples;Min_cycle;Max_cycle;Signal;HPM_P1;HPM_P2
2023/12/22 00:02:23;;;;;;;4.03;2.20;;;;;;;;;;5081248;28;20275;-70
2023/12/22 00:04:48;;;;;;;4.10;1.80;;;6.90;99.90;;;;;;5081189;28;20047;-69
2023/12/22 00:07:14;;;;;;;3.95;2.10;;;7.10;99.90;;;;;;5081272;28;20282;-70
2023/12/22 00:09:40;;;;;;;2.35;1.88;;;;;;;;;;5081341;28;20212;-71
2023/12/22 00:12:06;;;;;;;1.88;1.50;;;;;;;;;;5081017;28;20336;-71
2023/12/22 00:14:32;;;;;;;3.53;2.28;;;7.20;99.90;;;;;;5063082;28;20028;-70
2023/12/22 00:16:58;;;;;;;3.28;2.05;;;;;;;;;;5081017;28;20024;-71
2023/12/22 00:19:24;;;;;;;4.13;2.55;;;7.20;99.90;;;;;;5081217;28;20020;-69
2023/12/22 00:21:49;;;;;;;2.55;1.50;;;7.20;99.90;;;;;;5079489;28;20023;-70
2023/12/22 00:24:16;;;;;;;7.85;2.88;;;;;;;;;;5060773;28;20112;-69
2023/12/22 00:26:42;;;;;;;4.32;2.97;;;7.20;99.90;;;;;;5060627;28;20049;-69
2023/12/22 00:29:08;;;;;;;4.28;2.72;;;;;;;;;;5059930;28;20098;-70
2023/12/22 00:31:34;;;;;;;4.32;2.92;;;7.10;99.90;;;;;;5079008;28;20040;-70
2023/12/22 00:34:01;;;;;;;5.93;3.50;;;7.00;99.90;;;;;;5080821;28;20201;-69
2023/12/22 00:36:27;;;;;;;2.85;1.88;;;;;;;;;;5080820;28;20380;-69
2023/12/22 00:38:53;;;;;;;6.57;3.97;;;;;;;;;;5082165;28;20082;-69
2023/12/22 00:41:18;;;;;;;6.93;4.15;;;7.00;99.90;;;;;;5066927;28;20328;-69
2023/12/22 00:43:44;;;;;;;6.13;3.78;;;6.70;99.90;;;;;;5084885;28;20075;-69
2023/12/22 00:46:10;;;;;;;6.25;3.53;;;7.00;99.90;;;;;;5069953;28;20021;-69
2023/12/22 00:48:35;;;;;;;12.40;6.18;;;6.70;99.90;;;;;;5064557;28;20035;-69
2023/12/22 00:51:01;;;;;;;5.22;2.85;;;;;;;;;;5064525;28;20029;-70
2023/12/22 00:53:27;;;;;;;5.30;3.88;;;;;;;;;;5064552;28;20024;-69
2023/12/22 00:55:53;;;;;;;8.10;4.18;;;6.60;99.90;;;;;;5064806;28;20009;-70
2023/12/22 00:58:19;;;;;;;6.72;4.07;;;6.40;99.90;;;;;;5064763;28;20205;-70
2023/12/22 01:00:44;;;;;;;6.15;3.92;;;6.40;99.90;;;;;;5064427;28;20304;-70
2023/12/22 01:03:11;;;;;;;8.98;4.72;;;6.40;99.90;;;;;;5064478;28;20029;-70
2023/12/22 01:05:38;;;;;;;6.30;2.85;;;;;;;;;;5064340;28;20194;-69
2023/12/22 01:08:04;;;;;;;6.75;4.38;;;;;;;;;;5064284;28;20076;-69
2023/12/22 01:10:30;;;;;;;7.57;4.85;;;6.30;99.90;;;;;;5064455;28;20029;-71
2023/12/22 01:12:57;;;;;;;7.15;4.78;;;6.40;99.90;;;;;;5046513;28;20216;-71
2023/12/22 01:15:23;;;;;;;7.75;4.68;;;;;;;;;;5064092;28;20025;-70
2023/12/22 01:17:48;;;;;;;8.30;4.03;;;6.40;99.90;;;;;;5064403;28;20017;-70
2023/12/22 01:20:14;;;;;;;5.18;3.95;;;;;;;;;;5064397;28;20035;-70
2023/12/22 01:22:40;;;;;;;8.15;4.10;;;6.30;99.90;;;;;;5064154;28;20017;-70
2023/12/22 01:25:06;;;;;;;7.00;4.05;;;6.10;99.90;;;;;;5064030;28;20229;-69
2023/12/22 01:27:32;;;;;;;6.00;3.88;;;6.30;99.90;;;;;;5064005;28;20060;-70
2023/12/22 01:29:58;;;;;;;8.05;3.88;;;;;;;;;;5046163;28;20252;-71
2023/12/22 01:32:24;;;;;;;4.00;2.70;;;6.10;99.90;;;;;;5063951;28;20050;-70
2023/12/22 01:34:50;;;;;;;5.35;3.00;;;6.20;99.90;;;;;;5063940;28;20037;-70
2023/12/22 01:37:15;;;;;;;3.50;2.00;;;6.40;99.90;;;;;;5046142;28;20017;-71
2023/12/22 01:39:41;;;;;;;4.15;2.60;;;6.30;99.90;;;;;;5045974;28;20020;-70
2023/12/22 01:42:07;;;;;;;1.65;1.38;;;6.50;99.90;;;;;;5063953;28;20031;-71
2023/12/22 01:44:32;;;;;;;3.13;2.00;;;6.20;99.90;;;;;;5063818;28;20330;-70
2023/12/22 01:46:59;;;;;;;2.65;1.00;;;6.20;99.90;;;;;;5063967;28;20260;-70
2023/12/22 01:49:25;;;;;;;1.95;0.70;;;6.30;99.90;;;;;;5063565;28;20064;-70
2023/12/22 01:51:52;;;;;;;1.65;0.52;;;6.30;99.90;;;;;;5063607;28;20040;-71
2023/12/22 01:54:18;;;;;;;1.02;0.38;;;6.10;99.90;;;;;;5063637;28;20410;-70
2023/12/22 01:56:45;;;;;;;0.50;0.45;;;6.20;99.90;;;;;;5063455;28;20028;-70
2023/12/22 01:59:11;;;;;;;2.25;0.75;;;6.40;99.90;;;;;;5062362;28;20025;-70
2023/12/22 02:01:39;;;;;;;0.40;0.40;;;6.40;99.90;;;;;;5063500;28;20053;-71
2023/12/22 02:04:05;;;;;;;1.05;0.57;;;6.30;99.90;;;;;;5063260;28;20033;-71
2023/12/22 02:06:35;;;;;;;0.63;0.43;;;6.30;99.90;;;;;;5063282;28;20029;-71
2023/12/22 02:09:01;;;;;;;1.13;0.40;;;6.30;99.90;;;;;;5063319;28;20033;-72
2023/12/22 02:11:27;;;;;;;0.65;0.32;;;6.30;99.90;;;;;;5063199;28;20021;-71
2023/12/22 02:13:53;;;;;;;1.42;0.50;;;6.30;99.90;;;;;;5063016;28;20136;-71
2023/12/22 02:16:29;;;;;;;0.63;0.32;;;6.40;99.90;;;;;;5063412;28;20036;-71
2023/12/22 02:18:58;;;;;;;1.38;0.52;;;6.30;99.90;;;;;;5063316;28;20021;-71
2023/12/22 02:21:24;;;;;;;;;;;6.20;99.80;;;;;;5063484;28;20062;-71
2023/12/22 02:23:50;;;;;;;0.47;0.47;;;6.00;99.90;;;;;;5062802;28;19991;-71
2023/12/22 02:26:27;;;;;;;1.52;0.57;;;6.00;99.90;;;;;;5065132;28;20086;-72
2023/12/22 02:28:55;;;;;;;0.00;0.00;;;6.00;99.90;;;;;;5084796;28;20035;-73
2023/12/22 02:31:37;;;;;;;1.42;0.52;;;6.00;99.90;;;;;;5084559;28;20065;-70
2023/12/22 02:34:07;;;;;;;0.80;0.30;;;5.90;99.90;;;;;;5082739;28;20312;-71
2023/12/22 02:36:36;;;;;;;0.70;0.60;;;5.90;99.90;;;;;;5083259;28;20018;-71
2023/12/22 02:39:02;;;;;;;0.38;0.15;;;6.00;99.90;;;;;;5083110;28;20034;-70
2023/12/22 02:41:28;;;;;;;0.65;0.40;;;6.10;99.90;;;;;;5083057;28;20024;-70
2023/12/22 02:43:54;;;;;;;0.15;0.15;;;6.10;99.90;;;;;;5082885;28;20104;-71
2023/12/22 02:46:20;;;;;;;0.60;0.22;;;;;;;;;;5082600;28;20025;-72
2023/12/22 02:48:46;;;;;;;0.20;0.10;;;6.00;99.90;;;;;;5082543;28;20044;-70
2023/12/22 02:51:12;;;;;;;0.85;0.30;;;;;;;;;;5082832;28;20024;-70
2023/12/22 02:53:38;;;;;;;0.10;0.10;;;;;;;;;;5082961;28;20012;-72
2023/12/22 02:56:04;;;;;;;1.45;0.30;;;6.00;99.90;;;;;;5064646;28;20310;-72
2023/12/22 02:58:30;;;;;;;0.38;0.20;;;;;;;;;;5082261;28;20032;-73
2023/12/22 03:00:55;;;;;;;0.28;0.20;;;6.00;99.90;;;;;;5082251;28;20025;-74
2023/12/22 03:03:21;;;;;;;0.22;0.13;;;6.30;99.90;;;;;;5082823;28;20118;-74
2023/12/22 03:05:47;;;;;;;0.90;0.20;;;;;;;;;;5082454;28;20386;-73
2023/12/22 03:08:12;;;;;;;0.20;0.15;;;6.00;99.90;;;;;;5082313;28;20022;-72
2023/12/22 03:10:38;;;;;;;1.33;0.35;;;6.10;99.90;;;;;;5064202;28;20114;-73
2023/12/22 03:13:04;;;;;;;0.90;0.38;;;6.00;99.90;;;;;;5081963;28;20083;-73
2023/12/22 03:15:29;;;;;;;0.15;0.05;;;;;;;;;;5064573;28;20052;-73
2023/12/22 03:17:55;;;;;;;1.10;0.13;;;6.10;99.90;;;;;;5078653;28;20327;-73
2023/12/22 03:20:21;;;;;;;0.15;0.15;;;5.80;99.90;;;;;;5058065;28;20023;-73
2023/12/22 03:22:46;;;;;;;0.85;0.30;;;6.00;99.90;;;;;;5062757;28;20031;-74
2023/12/22 03:25:12;;;;;;;1.35;0.20;;;;;;;;;;5063459;28;20072;-74
2023/12/22 03:27:38;;;;;;;1.25;0.10;;;5.60;99.90;;;;;;5061562;28;20041;-73
2023/12/22 03:30:04;;;;;;;0.20;0.10;;;5.80;99.90;;;;;;5062959;28;20343;-74
2023/12/22 03:32:30;;;;;;;0.30;0.20;;;;;;;;;;5062878;28;20036;-73
2023/12/22 03:34:56;;;;;;;2.05;0.20;;;;;;;;;;5082536;28;20100;-72
2023/12/22 03:37:22;;;;;;;2.47;1.10;;;5.70;99.90;;;;;;5081839;28;20043;-72
2023/12/22 03:39:48;;;;;;;0.20;0.20;;;;;;;;;;5081694;28;20335;-73
2023/12/22 03:42:13;;;;;;;2.20;0.50;;;5.50;99.90;;;;;;5081783;28;20016;-73
2023/12/22 03:44:41;;;;;;;1.35;0.52;;;;;;;;;;5081562;28;20039;-71
2023/12/22 03:47:07;;;;;;;0.88;0.13;;;5.60;99.90;;;;;;5081341;28;20029;-72
2023/12/22 03:49:33;;;;;;;0.63;0.43;;;;;;;;;;5063343;28;20047;-71
2023/12/22 03:51:59;;;;;;;1.20;0.60;;;;;;;;;;5081231;28;20019;-72
2023/12/22 03:54:25;;;;;;;3.70;0.68;;;5.50;99.40;;;;;;5081464;28;20084;-73
2023/12/22 03:56:51;;;;;;;0.20;0.20;;;;;;;;;;5081544;28;20052;-73
2023/12/22 03:59:18;;;;;;;0.57;0.30;;;;;;;;;;5081500;28;20255;-73
2023/12/22 04:01:55;;;;;;;1.10;0.30;;;5.60;99.80;;;;;;5081512;28;20012;-72
2023/12/22 04:04:22;;;;;;;1.60;0.50;;;5.50;99.10;;;;;;5081121;28;20028;-75
2023/12/22 04:06:48;;;;;;;1.73;0.70;;;;;;;;;;5081151;28;20016;-73
2023/12/22 04:09:14;;;;;;;9.18;2.75;;;5.60;99.00;;;;;;5080975;28;20119;-72
2023/12/22 04:11:41;;;;;;;2.08;0.95;;;5.60;99.30;;;;;;5081142;28;20024;-72
2023/12/22 04:14:07;;;;;;;0.57;0.28;;;;;;;;;;5080024;28;20062;-70
2023/12/22 04:16:33;;;;;;;2.00;0.52;;;5.60;99.90;;;;;;5081259;28;20025;-70
2023/12/22 04:19:00;;;;;;;1.23;0.85;;;;;;;;;;5081067;28;20028;-73
2023/12/22 04:21:25;;;;;;;0.85;0.30;;;5.50;99.90;;;;;;5081106;28;20070;-72
2023/12/22 04:23:51;;;;;;;3.47;0.40;;;5.30;99.90;;;;;;5080782;28;20036;-72
2023/12/22 04:26:16;;;;;;;1.27;0.50;;;5.10;97.60;;;;;;5080776;28;20025;-71
2023/12/22 04:28:43;;;;;;;1.35;0.50;;;;;;;;;;5080965;28;20082;-71
2023/12/22 04:31:09;;;;;;;1.13;0.30;;;;;;;;;;5080857;28;20027;-72
2023/12/22 04:33:34;;;;;;;5.88;0.52;;;4.80;99.90;;;;;;5062913;28;20028;-71
2023/12/22 04:36:00;;;;;;;1.10;0.65;;;4.50;99.90;;;;;;5063151;28;20039;-72
2023/12/22 04:38:25;;;;;;;3.30;0.60;;;4.50;99.90;;;;;;5080746;28;20323;-72
2023/12/22 04:40:51;;;;;;;4.53;1.35;;;4.40;99.90;;;;;;5080962;28;20069;-72
2023/12/22 04:43:17;;;;;;;1.40;0.60;;;;;;;;;;5080564;28;20316;-70
2023/12/22 04:45:43;;;;;;;2.45;0.47;;;;;;;;;;5080881;28;20047;-70
2023/12/22 04:48:09;;;;;;;5.47;0.77;;;3.90;99.90;;;;;;5062712;28;20025;-70
2023/12/22 04:50:35;;;;;;;2.80;0.45;;;;;;;;;;5062737;28;20305;-71
2023/12/22 04:53:01;;;;;;;3.25;0.60;;;;;;;;;;5080601;28;20212;-71
2023/12/22 04:55:26;;;;;;;2.88;0.55;;;4.10;99.90;;;;;;5080577;28;20021;-71
2023/12/22 04:57:52;;;;;;;6.90;1.58;;;4.10;99.90;;;;;;5080555;28;20043;-71
2023/12/22 05:00:18;;;;;;;4.07;0.90;;;4.00;99.20;;;;;;5080541;28;20259;-71
2023/12/22 05:02:44;;;;;;;0.98;0.50;;;;;;;;;;5080515;28;20373;-71
2023/12/22 05:05:11;;;;;;;0.98;0.40;;;3.90;97.10;;;;;;5062613;28;20044;-73
2023/12/22 05:07:37;;;;;;;2.17;0.50;;;;;;;;;;5066214;28;20021;-75
2023/12/22 05:10:03;;;;;;;3.05;0.40;;;4.00;99.90;;;;;;5083348;28;20027;-74
2023/12/22 05:12:29;;;;;;;3.92;1.05;;;;;;;;;;5083437;28;20020;-74
2023/12/22 05:14:55;;;;;;;2.42;0.50;;;;;;;;;;5065878;28;20032;-74
2023/12/22 05:17:21;;;;;;;4.57;0.65;;;;;;;;;;5093780;28;20030;-74
2023/12/22 05:19:47;;;;;;;3.55;0.73;;;3.90;99.90;;;;;;5072854;28;20049;-74
2023/12/22 05:22:12;;;;;;;1.35;0.57;;;4.00;99.90;;;;;;5101630;28;20324;-74
2023/12/22 05:24:38;;;;;;;3.03;0.20;;;;;;;;;;5104213;28;20046;-75
2023/12/22 05:27:04;;;;;;;2.05;0.52;;;4.00;99.90;;;;;;5108022;28;20078;-77
2023/12/22 05:29:30;;;;;;;0.82;0.50;;;4.10;99.90;;;;;;5109115;28;20027;-79
2023/12/22 05:31:55;;;;;;;1.90;0.75;;;4.00;98.50;;;;;;5107465;28;20024;-73
2023/12/22 05:34:21;;;;;;;2.70;0.68;;;;;;;;;;5104225;28;20107;-73
2023/12/22 05:36:47;;;;;;;1.45;0.60;;;4.20;99.90;;;;;;5104184;28;20027;-71
2023/12/22 05:39:13;;;;;;;0.95;0.60;;;3.90;99.90;;;;;;5104317;28;20039;-73
2023/12/22 05:41:39;;;;;;;1.35;0.38;;;;;;;;;;5104286;28;20047;-72
2023/12/22 05:44:06;;;;;;;1.60;0.70;;;4.10;91.80;;;;;;5105113;28;20043;-74
2023/12/22 05:46:36;;;;;;;2.20;0.80;;;4.30;94.40;;;;;;5106385;28;20051;-73
2023/12/22 05:49:02;;;;;;;4.00;1.02;;;4.10;99.80;;;;;;5104314;28;20038;-72
2023/12/22 05:51:28;;;;;;;4.18;0.77;;;;;;;;;;5104194;28;20040;-73
2023/12/22 05:53:54;;;;;;;4.47;1.13;;;4.00;94.80;;;;;;5104685;28;20038;-73
2023/12/22 05:56:20;;;;;;;6.78;0.88;;;4.10;96.00;;;;;;5104495;28;20312;-73
2023/12/22 05:58:48;;;;;;;1.48;0.57;;;4.20;89.10;;;;;;5104446;28;20046;-74
2023/12/22 06:01:18;;;;;;;9.77;1.80;;;4.10;98.20;;;;;;5104866;28;20542;-73
2023/12/22 06:03:44;;;;;;;0.88;0.63;;;;;;;;;;5104535;28;20081;-74
2023/12/22 06:06:10;;;;;;;5.72;0.63;;;;;;;;;;5088212;28;20036;-73
2023/12/22 06:08:37;;;;;;;2.50;0.75;;;4.10;97.20;;;;;;5084628;28;20079;-73
2023/12/22 06:11:03;;;;;;;6.15;0.90;;;;;;;;;;5084541;28;20020;-73
2023/12/22 06:13:29;;;;;;;4.70;1.50;;;;;;;;;;5083897;28;20024;-74
2023/12/22 06:15:55;;;;;;;1.35;0.60;;;;;;;;;;5084113;28;20034;-74
2023/12/22 06:18:21;;;;;;;6.47;1.17;;;4.20;95.90;;;;;;5084296;28;20024;-73
2023/12/22 06:20:47;;;;;;;3.20;0.60;;;;;;;;;;5084124;28;20198;-74
2023/12/22 06:23:13;;;;;;;4.95;1.10;;;4.20;94.70;;;;;;5083672;28;20028;-74
2023/12/22 06:25:38;;;;;;;9.35;0.77;;;4.10;94.80;;;;;;5083845;28;20024;-73
2023/12/22 06:28:04;;;;;;;8.32;1.92;;;4.30;94.70;;;;;;5065328;28;20052;-73
2023/12/22 06:30:30;;;;;;;2.20;0.75;;;;;;;;;;5082817;28;20032;-73
2023/12/22 06:32:56;;;;;;;4.70;0.82;;;4.40;91.40;;;;;;5083390;28;20362;-74
2023/12/22 06:35:25;;;;;;;1.83;1.00;;;;;;;;;;5083225;28;20032;-73
2023/12/22 06:37:51;;;;;;;1.98;0.82;;;;;;;;;;5067132;28;20055;-75
2023/12/22 06:40:18;;;;;;;5.43;0.98;;;;;;;;;;5087412;28;20025;-76
2023/12/22 06:42:44;;;;;;;3.45;0.93;;;;;;;;;;5086484;28;20040;-78
2023/12/22 06:45:11;;;;;;;3.22;1.17;;;;;;;;;;5069171;28;20044;-80
2023/12/22 06:47:37;;;;;;;2.67;1.27;;;4.20;93.40;;;;;;5069243;28;20044;-78
2023/12/22 06:50:03;;;;;;;8.90;0.88;;;;;;;;;;5087025;28;20039;-82
2023/12/22 06:52:30;;;;;;;4.00;1.35;;;;;;;;;;5077822;23;20081;-74
2023/12/22 06:54:56;;;;;;;3.42;1.20;;;4.30;88.60;;;;;;5089364;28;20032;-79
2023/12/22 06:57:22;;;;;;;10.55;1.77;;;;;;;;;;5107010;28;20016;-79
2023/12/22 06:59:49;;;;;;;11.00;1.02;;;;;;;;;;5106687;28;20020;-79
2023/12/22 07:02:15;;;;;;;4.63;0.80;;;4.30;92.30;;;;;;5099632;28;20035;-80
2023/12/22 07:05:04;;;;;;;4.05;0.90;;;4.80;91.80;;;;;;5128122;28;20063;-81
2023/12/22 07:07:30;;;;;;;14.00;1.05;;;4.40;88.00;;;;;;5108352;22;20341;-81
2023/12/22 07:09:56;;;;;;;3.42;0.50;;;;;;;;;;5069521;28;20051;-82
2023/12/22 07:12:22;;;;;;;3.28;0.77;;;;;;;;;;5087310;28;20075;-82
2023/12/22 07:14:48;;;;;;;1.92;0.60;;;4.80;90.30;;;;;;5070178;28;20025;-78
2023/12/22 07:17:13;;;;;;;2.20;0.80;;;4.70;75.50;;;;;;5087344;28;20305;-81
2023/12/22 07:19:39;;;;;;;11.07;1.50;;;4.70;90.40;;;;;;5068287;28;20087;-81
2023/12/22 07:22:05;;;;;;;2.53;0.88;;;;;;;;;;5067989;28;20052;-80
2023/12/22 07:24:31;;;;;;;1.77;0.82;;;;;;;;;;5085615;28;20037;-80
2023/12/22 07:26:57;;;;;;;4.30;1.15;;;;;;;;;;5087105;28;20025;-73
2023/12/22 07:29:23;;;;;;;5.88;1.48;;;5.10;90.30;;;;;;5083848;28;20013;-73
2023/12/22 07:31:49;;;;;;;8.32;1.13;;;;;;;;;;5084630;28;20028;-76
2023/12/22 07:34:15;;;;;;;5.90;1.60;;;5.30;90.40;;;;;;5083769;28;20071;-73
2023/12/22 07:36:40;;;;;;;4.30;1.20;;;5.50;78.90;;;;;;5081793;28;20020;-71
2023/12/22 07:39:06;;;;;;;3.35;0.80;;;5.30;90.00;;;;;;5081813;28;20024;-78
2023/12/22 07:41:33;;;;;;;5.30;1.20;;;;;;;;;;5084834;28;20024;-78
2023/12/22 07:43:59;;;;;;;3.30;0.80;;;;;;;;;;5084910;28;20040;-81
2023/12/22 07:46:24;;;;;;;6.43;0.65;;;5.30;90.50;;;;;;5084896;28;20026;-79
2023/12/22 07:48:51;;;;;;;4.18;0.88;;;;;;;;;;5084036;28;20429;-78
2023/12/22 07:51:17;;;;;;;1.67;0.22;;;;;;;;;;5083856;28;20028;-78
2023/12/22 07:53:44;;;;;;;3.95;0.68;;;;;;;;;;5066457;28;20024;-79
2023/12/22 07:56:10;;;;;;;6.72;1.02;;;;;;;;;;5083614;28;20048;-75
2023/12/22 07:58:36;;;;;;;1.42;0.40;;;;;;;;;;5081829;28;20212;-77
2023/12/22 08:01:02;;;;;;;7.18;1.33;;;;;;;;;;5064804;28;20020;-78
2023/12/22 08:03:29;;;;;;;4.50;0.98;;;;;;;;;;5083766;28;20036;-80
2023/12/22 08:05:55;;;;;;;3.13;0.85;;;5.50;88.70;;;;;;5084043;28;20034;-78
2023/12/22 08:08:21;;;;;;;4.78;0.68;;;5.70;85.90;;;;;;5083287;28;20044;-75
2023/12/22 08:10:48;;;;;;;5.13;0.90;;;;;;;;;;5083283;28;20263;-77
2023/12/22 08:13:13;;;;;;;3.70;1.30;;;6.00;86.60;;;;;;5083966;28;20019;-78
2023/12/22 08:15:41;;;;;;;7.90;0.80;;;;;;;;;;5084196;28;20032;-77
2023/12/22 08:18:07;;;;;;;4.90;0.75;;;6.20;87.90;;;;;;5065240;28;20205;-80
2023/12/22 08:20:32;;;;;;;1.98;0.85;;;6.40;86.90;;;;;;5083780;28;20044;-78
2023/12/22 08:22:58;;;;;;;3.28;0.60;;;;;;;;;;5084046;28;20316;-76
2023/12/22 08:25:24;;;;;;;3.55;1.17;;;6.80;84.70;;;;;;5065467;28;20035;-77
2023/12/22 08:27:50;;;;;;;4.97;0.95;;;;;;;;;;5083760;28;20024;-78
2023/12/22 08:30:16;;;;;;;7.78;0.70;;;6.80;84.70;;;;;;5065466;28;20094;-79
2023/12/22 08:32:42;;;;;;;3.78;1.70;;;;;;;;;;5082782;28;20024;-79
2023/12/22 08:35:08;;;;;;;5.40;1.13;;;6.90;83.30;;;;;;5082538;28;20048;-77
2023/12/22 08:37:34;;;;;;;2.05;0.70;;;;;;;;;;5082232;28;20031;-77
2023/12/22 08:39:59;;;;;;;4.47;0.85;;;7.20;82.90;;;;;;5081252;28;20276;-74
2023/12/22 08:42:26;;;;;;;4.40;0.70;;;7.20;82.90;;;;;;5081164;28;20024;-73
2023/12/22 08:44:51;;;;;;;4.38;0.85;;;7.30;82.60;;;;;;5080882;28;20055;-75
2023/12/22 08:47:17;;;;;;;7.75;0.88;;;7.10;70.90;;;;;;5080798;28;20016;-75
2023/12/22 08:49:43;;;;;;;1.60;0.50;;;;;;;;;;5081781;28;20035;-74
2023/12/22 08:52:09;;;;;;;4.40;0.52;;;;;;;;;;5082776;28;20027;-80
2023/12/22 08:54:35;;;;;;;1.65;0.40;;;7.10;83.50;;;;;;5064681;28;20297;-80
2023/12/22 08:57:04;;;;;;;4.03;0.75;;;7.30;64.80;;;;;;5081133;28;20028;-78
2023/12/22 08:59:30;;;;;;;4.25;0.82;;;;;;;;;;5081542;28;20115;-80
2023/12/22 09:01:55;;;;;;;3.47;0.80;;;7.60;82.80;;;;;;5066874;28;20309;-79
2023/12/22 09:04:24;;;;;;;1.45;0.65;;;;;;;;;;5084719;28;20037;-76
2023/12/22 09:06:50;;;;;;;2.03;0.90;;;;;;;;;;5084482;28;20064;-78
2023/12/22 09:09:16;;;;;;;5.97;0.57;;;;;;;;;;5084596;28;20251;-77
2023/12/22 09:11:42;;;;;;;3.05;0.60;;;8.00;81.30;;;;;;5084387;28;20043;-76
2023/12/22 09:14:11;;;;;;;1.63;0.52;;;;;;;;;;5084692;28;20479;-76
2023/12/22 09:16:37;;;;;;;;;;;8.10;62.80;;;;;;5084871;28;20178;-74
2023/12/22 09:19:03;;;;;;;1.23;0.47;;;7.90;81.90;;;;;;5066244;28;20205;-75
2023/12/22 09:21:29;;;;;;;4.15;1.52;;;;;;;;;;5084313;28;20028;-74
2023/12/22 09:23:57;;;;;;;5.68;1.33;;;;;;;;;;5084286;28;20124;-73
2023/12/22 09:26:22;;;;;;;3.67;1.00;;;7.90;82.60;;;;;;5084214;28;20048;-73
2023/12/22 09:28:48;;;;;;;2.55;0.77;;;7.90;82.50;;;;;;5084343;28;20020;-73
2023/12/22 09:31:14;;;;;;;3.15;0.68;;;8.00;84.60;;;;;;5084111;28;20093;-71
2023/12/22 09:33:41;;;;;;;1.85;0.60;;;7.80;65.90;;;;;;5083973;28;20050;-73
2023/12/22 09:36:07;;;;;;;0.50;0.40;;;7.80;73.60;;;;;;5083807;28;20027;-73
2023/12/22 09:38:33;;;;;;;1.30;0.30;;;7.70;84.20;;;;;;5083981;28;20271;-71
2023/12/22 09:41:00;;;;;;;1.38;0.60;;;7.60;85.10;;;;;;5083841;28;20310;-78
2023/12/22 09:43:26;;;;;;;4.95;0.63;;;;;;;;;;5083647;28;20044;-73
2023/12/22 09:45:52;;;;;;;0.60;0.60;;;7.50;74.30;;;;;;5084229;28;20085;-75
2023/12/22 09:48:26;;;;;;;0.40;0.40;;;7.40;85.00;;;;;;5083850;28;20017;-73
2023/12/22 09:50:54;;;;;;;2.53;0.63;;;7.20;67.30;;;;;;5083688;28;20028;-75
2023/12/22 09:53:21;;;;;;;1.52;0.50;;;7.10;87.00;;;;;;5065432;28;20021;-73
2023/12/22 09:55:49;;;;;;;1.63;0.20;;;7.20;68.30;;;;;;5083195;28;20537;-69
2023/12/22 09:58:16;;;;;;;1.42;0.38;;;7.20;86.30;;;;;;5083277;28;20353;-69
2023/12/22 10:00:42;;;;;;;1.63;0.45;;;7.40;80.60;;;;;;5083319;28;20016;-70
2023/12/22 10:03:10;;;;;;;2.70;0.65;;;6.80;77.90;;;;;;5083240;28;20024;-69
2023/12/22 10:05:36;;;;;;;1.47;0.60;;;6.70;72.80;;;;;;5065202;28;20340;-69
2023/12/22 10:08:04;;;;;;;1.15;0.85;;;6.60;87.70;;;;;;5083018;28;20044;-69
2023/12/22 10:10:30;;;;;;;0.85;0.38;;;7.00;88.20;;;;;;5082847;28;20083;-69
2023/12/22 10:12:58;;;;;;;2.15;0.60;;;6.90;69.10;;;;;;5082769;28;20028;-70
2023/12/22 10:15:24;;;;;;;0.77;0.50;;;6.70;87.80;;;;;;5083366;28;20087;-70
2023/12/22 10:17:51;;;;;;;1.17;0.82;;;7.00;69.50;;;;;;5083151;28;20084;-69
2023/12/22 10:20:18;;;;;;;0.85;0.47;;;;;;;;;;5082892;28;20021;-69
2023/12/22 10:22:43;;;;;;;1.55;0.73;;;7.10;87.60;;;;;;5082598;28;20216;-70
2023/12/22 10:25:09;;;;;;;1.23;0.57;;;7.10;87.80;;;;;;5082786;28;20308;-70
2023/12/22 10:27:37;;;;;;;2.60;0.75;;;6.90;87.50;;;;;;5082910;28;20044;-70
2023/12/22 10:30:04;;;;;;;0.43;0.28;;;7.10;69.80;;;;;;5082965;28;20328;-69
2023/12/22 10:32:29;;;;;;;2.20;0.30;;;7.20;88.20;;;;;;5082582;28;20020;-69
2023/12/22 10:34:59;;;;;;;1.10;0.38;;;7.40;87.10;;;;;;5082889;28;20031;-70
2023/12/22 10:37:25;;;;;;;2.10;0.55;;;7.20;87.50;;;;;;5082908;28;20022;-70
2023/12/22 10:39:54;;;;;;;1.80;0.65;;;6.90;87.90;;;;;;5082689;28;20464;-70
2023/12/22 10:42:20;;;;;;;4.72;0.90;;;6.90;88.30;;;;;;5082682;28;20020;-70
2023/12/22 10:44:47;;;;;;;1.70;0.90;;;;;;;;;;5082410;28;20051;-70
2023/12/22 10:47:14;;;;;;;0.30;0.30;;;;;;;;;;5082351;28;20027;-70
2023/12/22 10:49:40;;;;;;;1.60;0.80;;;;;;;;;;5082423;28;20376;-70
2023/12/22 10:52:06;;;;;;;1.52;0.80;;;;;;;;;;5082222;28;20019;-70
2023/12/22 10:54:32;;;;;;;1.20;0.50;;;;;;;;;;5082282;28;20088;-70
2023/12/22 10:57:02;;;;;;;0.63;0.50;;;7.60;77.10;;;;;;5082499;28;20025;-70
2023/12/22 10:59:34;;;;;;;0.75;0.30;;;7.80;74.00;;;;;;5082475;28;20028;-70
2023/12/22 11:02:02;;;;;;;1.10;0.40;;;7.60;77.30;;;;;;5082314;28;20025;-70
2023/12/22 11:04:35;;;;;;;0.57;0.40;;;7.80;76.10;;;;;;5082042;28;20055;-70
2023/12/22 11:07:04;;;;;;;3.22;0.65;;;7.40;65.90;;;;;;5081904;28;20056;-70
2023/12/22 11:09:33;;;;;;;1.67;0.70;;;7.90;84.00;;;;;;5082011;28;20040;-70
2023/12/22 11:12:01;;;;;;;0.65;0.40;;;5.20;63.60;;;;;;5082137;28;20082;-70
2023/12/22 11:14:31;;;;;;;0.43;0.28;;;7.80;65.50;;;;;;5081924;28;20063;-69
2023/12/22 11:16:59;;;;;;;0.40;0.30;;;7.60;82.80;;;;;;5082007;28;20016;-69
2023/12/22 11:19:26;;;;;;;1.05;0.40;;;8.00;83.40;;;;;;5081784;28;20020;-69
2023/12/22 11:21:54;;;;;;;0.20;0.20;;;7.70;65.50;;;;;;5081804;28;20039;-70
2023/12/22 11:24:21;;;;;;;1.75;0.50;;;7.60;84.40;;;;;;5081419;28;20324;-70
2023/12/22 11:26:49;;;;;;;0.50;0.50;;;7.50;84.40;;;;;;5081730;28;20008;-70
2023/12/22 11:29:18;;;;;;;1.15;0.50;;;7.30;67.90;;;;;;5081623;28;20039;-70
2023/12/22 11:31:45;;;;;;;;;;;7.30;65.40;;;;;;5064226;28;20020;-70
2023/12/22 11:34:12;;;;;;;1.05;0.50;;;7.20;83.90;;;;;;5081535;28;19901;-70
2023/12/22 11:36:39;;;;;;;0.52;0.22;;;7.20;65.60;;;;;;5081581;28;20260;-70
2023/12/22 11:39:06;;;;;;;3.88;0.30;;;7.00;79.40;;;;;;5081454;28;20017;-70
2023/12/22 11:41:35;;;;;;;4.05;0.60;;;7.20;64.70;;;;;;5081353;28;20027;-70
2023/12/22 11:44:01;;;;;;;;;;;7.20;64.90;;;;;;5081815;28;20047;-70
2023/12/22 11:46:27;;;;;;;0.60;0.40;;;7.30;83.20;;;;;;5081371;28;19900;-70
2023/12/22 11:48:53;;;;;;;0.93;0.40;;;6.90;82.40;;;;;;5063588;28;20027;-70
2023/12/22 11:51:20;;;;;;;1.70;0.28;;;;;;;;;;5081293;28;20090;-70
2023/12/22 11:53:46;;;;;;;4.05;0.57;;;7.10;83.10;;;;;;5081358;28;20020;-70
2023/12/22 11:56:13;;;;;;;0.88;0.30;;;7.20;68.00;;;;;;5081119;28;20025;-71
2023/12/22 11:58:42;;;;;;;0.43;0.30;;;7.10;65.20;;;;;;5063210;28;20020;-70
2023/12/22 12:01:10;;;;;;;1.92;0.47;;;7.30;64.20;;;;;;5081034;28;20040;-70
2023/12/22 12:03:41;;;;;;;2.00;0.10;;;7.30;74.90;;;;;;5081513;28;20032;-70
2023/12/22 12:06:24;;;;;;;0.30;0.25;;;7.10;80.00;;;;;;5080950;28;20021;-70
2023/12/22 12:08:51;;;;;;;1.45;0.30;;;6.90;83.20;;;;;;5063215;28;20029;-71
2023/12/22 12:11:18;;;;;;;3.70;0.30;;;7.00;83.70;;;;;;5081319;28;20016;-71
2023/12/22 12:13:45;;;;;;;0.20;0.20;;;7.00;64.60;;;;;;5081295;28;20043;-71
2023/12/22 12:16:13;;;;;;;0.85;0.30;;;6.90;72.20;;;;;;5081053;28;20020;-70
2023/12/22 12:18:40;;;;;;;3.03;0.60;;;7.10;75.50;;;;;;5081137;28;20036;-70
2023/12/22 12:21:10;;;;;;;1.85;0.38;;;7.00;65.20;;;;;;5080976;28;20233;-71
2023/12/22 12:23:36;;;;;;;1.30;0.57;;;7.20;84.50;;;;;;5068302;28;20052;-69
2023/12/22 12:26:02;;;;;;;3.28;0.38;;;6.80;84.60;;;;;;5060853;28;20025;-69
2023/12/22 12:28:34;;;;;;;2.63;0.55;;;6.90;85.60;;;;;;5060869;28;20021;-70
2023/12/22 12:31:06;;;;;;;3.40;0.85;;;6.60;72.60;;;;;;5060699;28;20021;-70
2023/12/22 12:33:33;;;;;;;0.47;0.35;;;6.50;79.00;;;;;;5060671;28;20021;-69
2023/12/22 12:36:00;;;;;;;2.30;0.25;;;6.00;96.40;;;;;;5060311;28;20021;-70
2023/12/22 12:38:37;;;;;;;0.98;0.20;;;4.80;92.00;;;;;;5063488;28;20049;-71
2023/12/22 12:41:07;;;;;;;5.43;0.50;;;4.50;99.90;;;;;;5071642;28;20013;-71
2023/12/22 12:43:33;;;;;;;1.65;1.33;;;;;;;;;;5062599;28;20032;-73
2023/12/22 12:46:05;;;;;;;1.65;0.38;;;4.10;99.90;;;;;;5042986;28;20025;-70
2023/12/22 12:48:31;;;;;;;1.20;0.35;;;;;;;;;;5061022;28;20044;-69
2023/12/22 12:51:05;;;;;;;1.42;0.38;;;4.00;99.90;;;;;;5060831;28;20330;-70
2023/12/22 12:53:37;;;;;;;2.13;1.00;;;4.00;99.90;;;;;;5060700;28;20041;-70
2023/12/22 12:56:03;;;;;;;2.45;1.30;;;3.80;99.90;;;;;;5060709;28;20020;-70
2023/12/22 12:58:32;;;;;;;0.70;0.50;;;3.80;99.90;;;;;;5060542;28;20067;-71
2023/12/22 13:01:10;;;;;;;0.73;0.40;;;3.70;99.90;;;;;;5062042;28;20021;-74
2023/12/22 13:03:53;;;;;;;2.72;0.82;;;3.80;99.90;;;;;;5076461;28;20077;-74
2023/12/22 13:06:19;;;;;;;0.70;0.52;;;4.10;99.90;;;;;;5082510;28;20047;-74
2023/12/22 13:08:52;;;;;;;3.17;1.35;;;;;;;;;;5082851;28;20028;-74
2023/12/22 13:11:28;;;;;;;1.67;1.30;;;7.10;98.20;;;;;;5080690;28;20355;-74
2023/12/22 13:13:54;;;;;;;4.18;1.17;;;8.60;98.20;;;;;;5080582;28;20017;-75
2023/12/22 13:16:29;;;;;;;2.88;1.30;;;12.30;91.60;;;;;;5062319;28;20327;-75
2023/12/22 13:18:55;;;;;;;3.35;1.20;;;15.60;81.10;;;;;;5062418;28;20020;-74
2023/12/22 13:21:21;;;;;;;2.03;1.00;;;15.80;67.40;;;;;;5080202;28;20039;-74
2023/12/22 13:23:46;;;;;;;1.73;0.90;;;17.90;61.50;;;;;;5080244;28;20032;-74
2023/12/22 13:26:19;;;;;;;4.03;1.00;;;18.10;59.50;;;;;;5080089;28;20324;-74
2023/12/22 13:28:45;;;;;;;2.53;1.13;;;18.00;59.10;;;;;;5080198;28;20304;-74